Terminal Aerodrome Forecast
Issued by NWS Omaha/Valley, NE

Home | Current Version | Previous Version | Graphics & Text | Print | Product List | Glossary On
Versions: 1 2 3 4 5 6 7 8 9 10 11 12 13 14 15 16 17 18 19 20 21 22 23 24 25 26 27 28 29 30 31 32 33 34 35 36 37 38 39 40 41 42 43
000
FTUS43 KOAX 230713 AAA
TAFOFK
TAF AMD
KOFK 230713Z 2307/2406 25006KT 4SM BR OVC005
      TEMPO 2307/2311 1 1/2SM BR OVC002
     FM231100 33011KT P6SM SCT015 BKN110
     FM231500 33015G25KT P6SM SCT015 OVC035 PROB30 2317/2321 5SM
      -SHRA BKN025
     FM232200 33020G30KT P6SM BKN035=

USA.gov is the U.S. government's official web portal to all federal, state and local government web resources and services.